createdAt,value
2019-02-20T00:00:28.996Z,0.00
2019-02-20T00:01:28.965Z,0.00
2019-02-20T00:02:28.911Z,0.00
2019-02-20T00:03:28.882Z,0.00
2019-02-20T00:04:28.847Z,0.00
2019-02-20T00:05:28.808Z,0.00
2019-02-20T00:06:28.773Z,0.00
2019-02-20T00:07:28.738Z,0.00
2019-02-20T00:08:28.688Z,0.00
2019-02-20T00:09:28.648Z,0.00
2019-02-20T00:10:28.613Z,0.00
2019-02-20T00:11:28.586Z,0.00
2019-02-20T00:12:28.548Z,0.00
2019-02-20T00:13:28.494Z,0.00
2019-02-20T00:14:28.471Z,0.00
2019-02-20T00:15:28.426Z,0.00
2019-02-20T00:16:28.391Z,0.00
2019-02-20T00:17:28.371Z,0.00
2019-02-20T00:18:28.309Z,0.00
2019-02-20T00:19:28.314Z,0.00
2019-02-20T00:20:28.242Z,0.00
2019-02-20T00:21:28.207Z,0.00
2019-02-20T00:22:28.166Z,0.00
2019-02-20T00:23:28.138Z,0.00
2019-02-20T00:24:28.098Z,0.00
2019-02-20T00:25:28.048Z,0.00
2019-02-20T00:26:28.031Z,0.00
2019-02-20T00:27:27.979Z,0.00
2019-02-20T00:28:27.938Z,0.00
2019-02-20T00:29:27.919Z,0.00
2019-02-20T00:30:27.875Z,0.00
2019-02-20T00:31:27.833Z,0.00
2019-02-20T00:32:27.789Z,0.00
2019-02-20T00:33:27.755Z,0.00
2019-02-20T00:34:27.718Z,0.00
2019-02-20T00:35:27.691Z,0.00
2019-02-20T00:36:27.672Z,0.00
2019-02-20T00:37:27.602Z,0.00
2019-02-20T00:38:27.565Z,0.00
2019-02-20T00:39:27.529Z,0.00
2019-02-20T00:40:27.489Z,0.00
2019-02-20T00:41:27.451Z,0.00
2019-02-20T00:42:27.418Z,0.00
2019-02-20T00:43:27.393Z,0.00
2019-02-20T00:44:27.343Z,0.00
2019-02-20T00:45:27.304Z,0.00
2019-02-20T00:46:27.280Z,0.00
2019-02-20T00:47:27.230Z,0.00
2019-02-20T00:48:27.194Z,0.00
2019-02-20T00:49:27.148Z,0.00
2019-02-20T00:50:27.116Z,0.00
2019-02-20T00:51:27.096Z,0.00
2019-02-20T00:52:27.043Z,0.00
2019-02-20T00:53:27.000Z,0.00
2019-02-20T00:54:26.970Z,0.00
2019-02-20T00:55:26.926Z,0.00
2019-02-20T00:56:26.900Z,0.00
2019-02-20T00:57:26.870Z,0.00
2019-02-20T00:58:26.826Z,0.00
2019-02-20T00:59:26.782Z,0.00
2019-02-20T01:00:26.739Z,0.00
2019-02-20T01:01:26.705Z,0.00
2019-02-20T01:02:26.666Z,0.00
2019-02-20T01:03:26.626Z,0.00
2019-02-20T01:04:26.590Z,0.00
2019-02-20T01:05:26.550Z,0.00
2019-02-20T01:06:26.522Z,0.00
2019-02-20T01:07:26.493Z,0.00
2019-02-20T01:08:26.445Z,0.00
2019-02-20T01:09:26.401Z,0.00
2019-02-20T01:10:26.374Z,0.00
2019-02-20T01:11:26.325Z,0.00
2019-02-20T01:12:26.292Z,0.00
2019-02-20T01:13:26.270Z,0.00
2019-02-20T01:14:26.210Z,0.00
2019-02-20T01:15:26.184Z,0.00
2019-02-20T01:16:26.136Z,0.00
2019-02-20T01:17:26.107Z,0.00
2019-02-20T01:18:26.061Z,0.00
2019-02-20T01:19:26.037Z,0.00
2019-02-20T01:20:25.985Z,0.00
2019-02-20T01:21:25.960Z,0.00
2019-02-20T01:22:25.916Z,0.00
2019-02-20T01:23:25.879Z,0.00
2019-02-20T01:24:25.836Z,0.00
2019-02-20T01:25:25.801Z,0.00
2019-02-20T01:26:25.770Z,0.00
2019-02-20T01:27:25.724Z,0.00
2019-02-20T01:28:25.697Z,0.00
2019-02-20T01:29:25.739Z,0.00
2019-02-20T01:30:25.615Z,0.00
2019-02-20T01:31:25.571Z,0.00
2019-02-20T01:32:25.538Z,0.00
2019-02-20T01:33:25.500Z,0.00
2019-02-20T01:34:25.481Z,0.00
2019-02-20T01:35:25.448Z,0.00
2019-02-20T01:36:25.386Z,0.00
2019-02-20T01:37:25.347Z,0.00
2019-02-20T01:38:25.312Z,0.00
2019-02-20T01:39:25.278Z,0.00
2019-02-20T01:40:25.237Z,0.00
2019-02-20T01:41:25.201Z,0.00
2019-02-20T01:42:25.167Z,0.00
2019-02-20T01:43:25.130Z,0.00
2019-02-20T01:44:25.092Z,0.00
2019-02-20T01:45:25.045Z,0.00
2019-02-20T01:46:25.012Z,0.00
2019-02-20T01:47:24.967Z,0.00
2019-02-20T01:48:24.938Z,0.00
2019-02-20T01:49:24.905Z,0.00
2019-02-20T01:50:24.862Z,0.00
2019-02-20T01:51:24.821Z,0.00
2019-02-20T01:52:24.786Z,0.00
2019-02-20T01:53:24.741Z,0.00
2019-02-20T01:54:24.713Z,0.00
2019-02-20T01:55:24.671Z,0.00
2019-02-20T01:56:24.631Z,0.00
2019-02-20T01:57:24.593Z,0.00
2019-02-20T01:58:24.557Z,0.00
2019-02-20T01:59:24.523Z,0.00
2019-02-20T02:00:24.472Z,0.00
2019-02-20T02:01:24.437Z,0.00
2019-02-20T02:02:24.407Z,0.00
2019-02-20T02:03:24.372Z,0.00
2019-02-20T02:04:24.332Z,0.00
2019-02-20T02:05:24.291Z,0.00
2019-02-20T02:06:24.266Z,0.00
2019-02-20T02:07:24.222Z,0.00
2019-02-20T02:08:24.182Z,0.00
2019-02-20T02:09:24.133Z,0.00
2019-02-20T02:10:24.102Z,0.00
2019-02-20T02:11:24.078Z,0.00
2019-02-20T02:12:24.027Z,0.00
2019-02-20T02:13:23.993Z,0.00
2019-02-20T02:14:23.962Z,0.00
2019-02-20T02:15:23.923Z,0.00
2019-02-20T02:16:23.877Z,0.00
2019-02-20T02:17:23.843Z,0.00
2019-02-20T02:18:23.808Z,0.00
2019-02-20T02:19:23.761Z,0.00
2019-02-20T02:20:23.725Z,0.00
2019-02-20T02:21:23.692Z,0.00
2019-02-20T02:22:23.659Z,0.00
2019-02-20T02:23:23.614Z,0.00
2019-02-20T02:24:23.568Z,0.00
2019-02-20T02:25:23.543Z,0.00
2019-02-20T02:26:23.502Z,0.00
2019-02-20T02:27:23.458Z,0.00
2019-02-20T02:28:23.419Z,0.00
2019-02-20T02:29:23.388Z,0.00
2019-02-20T02:30:23.360Z,0.00
2019-02-20T02:31:23.313Z,0.00
2019-02-20T02:32:23.268Z,0.00
2019-02-20T02:33:23.234Z,0.00
2019-02-20T02:34:23.204Z,0.00
2019-02-20T02:35:23.163Z,0.00
2019-02-20T02:36:23.132Z,0.00
2019-02-20T02:37:23.085Z,0.00
2019-02-20T02:38:23.059Z,0.00
2019-02-20T02:39:23.004Z,0.00
2019-02-20T02:40:22.965Z,0.00
2019-02-20T02:41:22.935Z,0.00
2019-02-20T02:42:22.893Z,0.00
2019-02-20T02:43:22.863Z,0.00
2019-02-20T02:44:22.823Z,0.00
2019-02-20T02:45:22.793Z,0.00
2019-02-20T02:46:22.742Z,0.00
2019-02-20T02:47:22.710Z,0.00
2019-02-20T02:48:22.669Z,0.00
2019-02-20T02:49:22.630Z,0.00
2019-02-20T02:50:22.601Z,0.00
2019-02-20T02:51:22.553Z,0.00
2019-02-20T02:52:22.518Z,0.00
2019-02-20T02:53:30.460Z,0.00
2019-02-20T02:54:22.441Z,0.00
2019-02-20T02:55:22.395Z,0.00
2019-02-20T02:56:22.368Z,0.00
2019-02-20T02:57:22.361Z,0.00
2019-02-20T02:58:22.292Z,0.00
2019-02-20T02:59:22.278Z,0.00
2019-02-20T03:00:22.266Z,0.00
2019-02-20T03:01:22.182Z,0.00
2019-02-20T03:02:22.151Z,0.00
2019-02-20T03:03:22.104Z,0.00
2019-02-20T03:04:22.086Z,0.00
2019-02-20T03:05:22.044Z,0.00
2019-02-20T03:06:21.991Z,0.00
2019-02-20T03:07:21.954Z,0.00
2019-02-20T03:08:21.934Z,0.00
2019-02-20T03:09:21.884Z,0.00
2019-02-20T03:10:21.839Z,0.00
2019-02-20T03:11:21.810Z,0.00
2019-02-20T03:12:21.765Z,0.00
2019-02-20T03:13:21.741Z,0.00
2019-02-20T03:14:21.694Z,0.00
2019-02-20T03:15:21.653Z,0.00
2019-02-20T03:16:21.608Z,0.00
2019-02-20T03:17:21.584Z,0.00
2019-02-20T03:18:21.534Z,0.00
2019-02-20T03:19:21.502Z,0.00
2019-02-20T03:20:21.460Z,0.00
2019-02-20T03:21:21.427Z,0.00
2019-02-20T03:22:21.390Z,0.00
2019-02-20T03:23:21.352Z,0.00
2019-02-20T03:24:21.310Z,0.00
2019-02-20T03:25:21.283Z,0.00
2019-02-20T03:26:21.238Z,0.00
2019-02-20T03:27:21.205Z,0.00
2019-02-20T03:28:21.161Z,0.00
2019-02-20T03:29:21.123Z,0.00
2019-02-20T03:30:21.083Z,0.00
2019-02-20T03:31:21.052Z,0.00
2019-02-20T03:32:21.016Z,0.00
2019-02-20T03:33:20.989Z,0.00
2019-02-20T03:34:20.942Z,0.00
2019-02-20T03:35:20.902Z,0.00
2019-02-20T03:36:20.860Z,0.00
2019-02-20T03:37:20.832Z,0.00
2019-02-20T03:38:30.068Z,0.00
2019-02-20T03:39:20.757Z,0.00
2019-02-20T03:40:20.714Z,0.00
2019-02-20T03:41:20.737Z,0.00
2019-02-20T03:42:20.648Z,0.00
2019-02-20T03:43:20.600Z,0.00
2019-02-20T03:44:20.561Z,0.00
2019-02-20T03:45:20.544Z,0.00
2019-02-20T03:46:20.493Z,0.00
2019-02-20T03:47:20.447Z,0.00
2019-02-20T03:48:20.409Z,0.00
2019-02-20T03:49:20.380Z,0.00
2019-02-20T03:50:20.330Z,0.00
2019-02-20T03:51:20.307Z,0.00
2019-02-20T03:52:20.256Z,0.00
2019-02-20T03:53:20.239Z,0.00
2019-02-20T03:54:20.179Z,0.00
2019-02-20T03:55:20.151Z,0.00
2019-02-20T03:56:20.115Z,0.00
2019-02-20T03:57:20.084Z,0.00
2019-02-20T03:58:20.037Z,0.00
2019-02-20T03:59:20.004Z,0.00
2019-02-20T04:00:19.962Z,0.00
2019-02-20T04:01:19.924Z,0.00
2019-02-20T04:02:19.890Z,0.00
2019-02-20T04:03:19.848Z,0.00
2019-02-20T04:04:19.803Z,0.00
2019-02-20T04:05:19.775Z,0.00
2019-02-20T04:06:19.729Z,0.00
2019-02-20T04:07:19.708Z,0.00
2019-02-20T04:08:19.662Z,0.00
2019-02-20T04:09:19.618Z,0.00
2019-02-20T04:10:19.581Z,0.00
2019-02-20T04:11:19.549Z,0.00
2019-02-20T04:12:19.503Z,0.00
2019-02-20T04:13:19.473Z,0.00
2019-02-20T04:14:19.443Z,0.00
2019-02-20T04:15:19.395Z,0.00
2019-02-20T04:16:19.359Z,0.00
2019-02-20T04:17:19.319Z,0.00
2019-02-20T04:18:19.294Z,0.00
2019-02-20T04:19:19.251Z,0.00
2019-02-20T04:20:19.213Z,0.00
2019-02-20T04:21:19.168Z,0.00
2019-02-20T04:22:19.138Z,0.00
2019-02-20T04:23:19.094Z,0.00
2019-02-20T04:24:19.064Z,0.00
2019-02-20T04:25:19.025Z,0.00
2019-02-20T04:26:18.983Z,0.00
2019-02-20T04:27:18.954Z,0.00
2019-02-20T04:28:18.916Z,0.00
2019-02-20T04:29:18.869Z,0.00
2019-02-20T04:30:18.838Z,0.00
2019-02-20T04:31:18.798Z,0.00
2019-02-20T04:32:18.766Z,0.00
2019-02-20T04:33:18.729Z,0.00
2019-02-20T04:34:18.708Z,0.00
2019-02-20T04:35:18.656Z,0.00
2019-02-20T04:36:18.621Z,0.00
2019-02-20T04:37:18.575Z,0.00
2019-02-20T04:38:18.542Z,0.00
2019-02-20T04:39:18.504Z,0.00
2019-02-20T04:40:18.476Z,0.00
2019-02-20T04:41:18.420Z,0.00
2019-02-20T04:42:18.401Z,0.00
2019-02-20T04:43:18.352Z,0.00
2019-02-20T04:44:18.311Z,0.00
2019-02-20T04:45:18.276Z,0.00
2019-02-20T04:46:18.245Z,0.00
2019-02-20T04:47:18.202Z,0.00
2019-02-20T04:48:18.179Z,0.00
2019-02-20T04:49:18.135Z,0.00
2019-02-20T04:50:18.090Z,0.00
2019-02-20T04:51:18.048Z,0.00
2019-02-20T04:52:18.019Z,0.00
2019-02-20T04:53:17.980Z,0.00
2019-02-20T04:54:17.941Z,0.00
2019-02-20T04:55:17.920Z,0.00
2019-02-20T04:56:17.866Z,0.00
2019-02-20T04:57:17.828Z,0.00
2019-02-20T04:58:17.790Z,0.00
2019-02-20T04:59:17.756Z,0.00
2019-02-20T05:00:17.716Z,0.00
2019-02-20T05:01:17.683Z,0.00
2019-02-20T05:02:17.654Z,0.00
2019-02-20T05:03:17.611Z,0.00
2019-02-20T05:04:17.566Z,0.00
2019-02-20T05:05:17.535Z,0.00
2019-02-20T05:06:17.490Z,0.00
2019-02-20T05:07:17.461Z,0.00
2019-02-20T05:08:17.423Z,0.00
2019-02-20T05:09:17.421Z,0.00
2019-02-20T05:10:17.355Z,0.00
2019-02-20T05:11:17.315Z,0.00
2019-02-20T05:12:17.292Z,0.00
2019-02-20T05:13:17.239Z,0.00
2019-02-20T05:14:17.202Z,0.00
2019-02-20T05:15:17.166Z,0.00
2019-02-20T05:16:17.135Z,0.00
2019-02-20T05:17:17.083Z,0.00
2019-02-20T05:18:17.054Z,0.00
2019-02-20T05:19:17.011Z,0.00
2019-02-20T05:20:16.970Z,0.00
2019-02-20T05:21:16.941Z,0.00
2019-02-20T05:22:16.906Z,0.00
2019-02-20T05:23:16.877Z,0.00
2019-02-20T05:24:24.224Z,0.00
2019-02-20T05:25:16.793Z,0.00
2019-02-20T05:26:16.761Z,0.00
2019-02-20T05:27:16.718Z,0.00
2019-02-20T05:28:16.684Z,0.00
2019-02-20T05:29:16.645Z,0.00
2019-02-20T05:30:16.608Z,0.00
2019-02-20T05:31:16.769Z,0.00
2019-02-20T05:32:16.534Z,0.00
2019-02-20T05:33:16.489Z,0.00
2019-02-20T05:34:16.464Z,0.00
2019-02-20T05:35:16.418Z,0.00
2019-02-20T05:36:16.378Z,0.00
2019-02-20T05:37:16.344Z,0.00
2019-02-20T05:38:16.307Z,0.00
2019-02-20T05:39:16.277Z,0.00
2019-02-20T05:40:16.252Z,0.00
2019-02-20T05:41:16.187Z,0.00
2019-02-20T05:42:16.158Z,0.00
2019-02-20T05:43:16.121Z,0.00
2019-02-20T05:44:16.081Z,0.00
2019-02-20T05:45:16.052Z,0.00
2019-02-20T05:46:16.009Z,0.00
2019-02-20T05:47:15.969Z,0.00
2019-02-20T05:48:15.929Z,0.00
2019-02-20T05:49:15.912Z,0.00
2019-02-20T05:50:15.857Z,0.00
2019-02-20T05:51:15.823Z,0.00
2019-02-20T05:52:15.784Z,0.00
2019-02-20T05:53:15.749Z,0.00
2019-02-20T05:54:15.739Z,0.00
2019-02-20T05:55:15.706Z,0.00
2019-02-20T05:56:15.645Z,0.00
2019-02-20T05:57:15.603Z,0.00
2019-02-20T05:58:15.558Z,0.00
2019-02-20T05:59:15.527Z,0.00
2019-02-20T06:00:15.490Z,0.00
2019-02-20T06:01:15.449Z,0.00
2019-02-20T06:02:15.413Z,0.00
2019-02-20T06:03:15.379Z,0.00
2019-02-20T06:04:15.353Z,0.00
2019-02-20T06:05:15.303Z,0.00
2019-02-20T06:06:15.265Z,0.00
2019-02-20T06:07:15.226Z,0.00
2019-02-20T06:08:15.192Z,0.00
2019-02-20T06:09:15.149Z,0.00
2019-02-20T06:10:15.125Z,0.00
2019-02-20T06:11:15.631Z,0.00
2019-02-20T06:12:15.048Z,0.00
2019-02-20T06:13:15.010Z,4.00
2019-02-20T06:14:14.965Z,4.00
2019-02-20T06:15:14.934Z,4.00
2019-02-20T06:16:14.898Z,4.00
2019-02-20T06:17:14.860Z,4.00
2019-02-20T06:18:14.821Z,8.00
2019-02-20T06:19:14.787Z,4.00
2019-02-20T06:20:14.745Z,8.00
2019-02-20T06:21:16.316Z,8.00
2019-02-20T06:22:14.669Z,8.00
2019-02-20T06:23:14.630Z,12.00
2019-02-20T06:24:14.603Z,12.00
2019-02-20T06:25:14.582Z,16.00
2019-02-20T06:26:14.516Z,16.00
2019-02-20T06:27:14.481Z,20.00
2019-02-20T06:28:14.450Z,24.00
2019-02-20T06:29:14.412Z,32.00
2019-02-20T06:30:14.375Z,32.00
2019-02-20T06:31:14.340Z,36.00
2019-02-20T06:32:14.300Z,40.00
2019-02-20T06:33:14.265Z,44.00
2019-02-20T06:34:14.224Z,48.00
2019-02-20T06:35:14.200Z,56.00
2019-02-20T06:36:14.156Z,64.00
2019-02-20T06:37:14.105Z,68.00
2019-02-20T06:38:14.075Z,76.00
2019-02-20T06:39:14.037Z,80.00
2019-02-20T06:40:14.014Z,92.00
2019-02-20T06:41:13.959Z,100.00
2019-02-20T06:42:13.937Z,104.00
2019-02-20T06:43:13.886Z,116.00
2019-02-20T06:44:13.860Z,128.00
2019-02-20T06:45:13.816Z,140.00
2019-02-20T06:46:13.777Z,148.00
2019-02-20T06:47:13.742Z,160.00
2019-02-20T06:48:13.701Z,172.00
2019-02-20T06:49:13.666Z,188.00
2019-02-20T06:50:13.621Z,200.00
2019-02-20T06:51:13.590Z,216.00
2019-02-20T06:52:13.551Z,232.00
2019-02-20T06:53:13.510Z,248.00
2019-02-20T06:54:13.472Z,264.00
2019-02-20T06:55:13.437Z,284.00
2019-02-20T06:56:13.398Z,300.00
2019-02-20T06:57:13.366Z,324.00
2019-02-20T06:58:13.328Z,340.00
2019-02-20T06:59:13.295Z,364.00
2019-02-20T07:00:13.259Z,384.00
2019-02-20T07:01:13.221Z,408.00
2019-02-20T07:02:13.173Z,432.00
2019-02-20T07:03:13.140Z,460.00
2019-02-20T07:04:13.103Z,484.00
2019-02-20T07:05:13.062Z,508.00
2019-02-20T07:06:13.030Z,540.00
2019-02-20T07:07:12.992Z,576.00
2019-02-20T07:08:12.951Z,628.00
2019-02-20T07:09:15.157Z,664.00
2019-02-20T07:10:12.872Z,712.00
2019-02-20T07:11:12.837Z,756.00
2019-02-20T07:12:12.802Z,792.00
2019-02-20T07:13:12.763Z,792.00
2019-02-20T07:14:12.727Z,788.00
2019-02-20T07:15:12.683Z,800.00
2019-02-20T07:16:12.648Z,824.00
2019-02-20T07:17:12.635Z,852.00
2019-02-20T07:18:12.586Z,896.00
2019-02-20T07:19:12.539Z,944.00
2019-02-20T07:20:12.498Z,1004.00
2019-02-20T07:21:12.466Z,1060.00
2019-02-20T07:22:12.422Z,1124.00
2019-02-20T07:23:12.392Z,1160.00
2019-02-20T07:24:12.341Z,1228.00
2019-02-20T07:25:12.310Z,1260.00
2019-02-20T07:26:12.284Z,1240.00
2019-02-20T07:27:12.236Z,1248.00
2019-02-20T07:28:12.198Z,1264.00
2019-02-20T07:29:12.163Z,1288.00
2019-02-20T07:30:12.123Z,1332.00
2019-02-20T07:31:12.087Z,1380.00
2019-02-20T07:32:12.056Z,1408.00
2019-02-20T07:33:12.009Z,1424.00
2019-02-20T07:34:11.982Z,1440.00
2019-02-20T07:35:11.932Z,1472.00
2019-02-20T07:36:11.898Z,1528.00
2019-02-20T07:37:11.866Z,1596.00
2019-02-20T07:38:11.824Z,1660.00
2019-02-20T07:39:11.793Z,1700.00
2019-02-20T07:40:11.770Z,1768.00
2019-02-20T07:41:11.715Z,1888.00
2019-02-20T07:42:11.689Z,1996.00
2019-02-20T07:43:11.650Z,2088.00
2019-02-20T07:44:11.625Z,2188.00
2019-02-20T07:45:11.567Z,2280.00
2019-02-20T07:46:11.528Z,2388.00
2019-02-20T07:47:19.153Z,2440.00
2019-02-20T07:48:11.457Z,2432.00
2019-02-20T07:49:11.437Z,2452.00
2019-02-20T07:50:11.373Z,2500.00
2019-02-20T07:51:11.349Z,2556.00
2019-02-20T07:52:11.309Z,2592.00
2019-02-20T07:53:11.264Z,2580.00
2019-02-20T07:54:11.233Z,2572.00
2019-02-20T07:55:13.686Z,2544.00
2019-02-20T07:56:11.191Z,2540.00
2019-02-20T07:57:11.119Z,2568.00
2019-02-20T07:58:11.086Z,2516.00
2019-02-20T07:59:11.046Z,2432.00
2019-02-20T08:00:11.038Z,2344.00
2019-02-20T08:01:10.975Z,2304.00
2019-02-20T08:02:10.930Z,2264.00
2019-02-20T08:03:10.903Z,2236.00
2019-02-20T08:04:10.868Z,2232.00
2019-02-20T08:05:10.824Z,2272.00
2019-02-20T08:06:10.790Z,2288.00
2019-02-20T08:07:10.754Z,2276.00
2019-02-20T08:08:10.723Z,2272.00
2019-02-20T08:09:10.679Z,2252.00
2019-02-20T08:10:10.643Z,2248.00
2019-02-20T08:11:10.610Z,2248.00
2019-02-20T08:12:10.568Z,2228.00
2019-02-20T08:13:10.532Z,2216.00
2019-02-20T08:14:10.501Z,2236.00
2019-02-20T08:15:10.472Z,2308.00
2019-02-20T08:16:10.423Z,2468.00
2019-02-20T08:17:10.385Z,2680.00
2019-02-20T08:18:10.349Z,2756.00
2019-02-20T08:19:10.308Z,2788.00
2019-02-20T08:20:10.272Z,2832.00
2019-02-20T08:21:10.240Z,2904.00
2019-02-20T08:22:10.206Z,2896.00
2019-02-20T08:23:10.164Z,2960.00
2019-02-20T08:24:10.164Z,2920.00
2019-02-20T08:25:10.102Z,2936.00
2019-02-20T08:26:10.065Z,3020.00
2019-02-20T08:27:10.038Z,3040.00
2019-02-20T08:28:09.991Z,3128.00
2019-02-20T08:29:09.947Z,3180.00
2019-02-20T08:30:09.911Z,3336.00
2019-02-20T08:31:09.882Z,3524.00
2019-02-20T08:32:09.829Z,3592.00
2019-02-20T08:33:09.804Z,3616.00
2019-02-20T08:34:09.770Z,3732.00
2019-02-20T08:35:09.740Z,3936.00
2019-02-20T08:36:09.686Z,4008.00
2019-02-20T08:37:09.662Z,3948.00
2019-02-20T08:38:09.622Z,4360.00
2019-02-20T08:39:09.599Z,4452.00
2019-02-20T08:40:09.545Z,4804.00
2019-02-20T08:41:09.521Z,5044.00
2019-02-20T08:42:09.485Z,5132.00
2019-02-20T08:43:09.446Z,5316.00
2019-02-20T08:44:09.408Z,5516.00
2019-02-20T08:45:09.370Z,5588.00
2019-02-20T08:46:09.343Z,5524.00
2019-02-20T08:47:09.299Z,5724.00
2019-02-20T08:48:09.261Z,5668.00
2019-02-20T08:49:09.221Z,5868.00
2019-02-20T08:50:09.191Z,6056.00
2019-02-20T08:51:09.188Z,6276.00
2019-02-20T08:52:09.113Z,6364.00
2019-02-20T08:53:09.087Z,6368.00
2019-02-20T08:54:09.051Z,6572.00
2019-02-20T08:55:09.012Z,6700.00
2019-02-20T08:56:08.976Z,6232.00
2019-02-20T08:57:08.943Z,6456.00
2019-02-20T08:58:08.903Z,6700.00
2019-02-20T08:59:08.876Z,6560.00
2019-02-20T09:00:08.841Z,6040.00
2019-02-20T09:01:08.802Z,5916.00
2019-02-20T09:02:08.761Z,6248.00
2019-02-20T09:03:08.737Z,6460.00
2019-02-20T09:04:08.693Z,6272.00
2019-02-20T09:05:08.661Z,6128.00
2019-02-20T09:06:08.627Z,6420.00
2019-02-20T09:07:08.593Z,5892.00
2019-02-20T09:08:08.558Z,5376.00
2019-02-20T09:09:08.512Z,5148.00
2019-02-20T09:10:08.488Z,5232.00
2019-02-20T09:11:08.448Z,5516.00
2019-02-20T09:12:08.418Z,5928.00
2019-02-20T09:13:08.378Z,5720.00
2019-02-20T09:14:08.343Z,5072.00
2019-02-20T09:15:08.311Z,5108.00
2019-02-20T09:16:08.283Z,4920.00
2019-02-20T09:17:08.252Z,4600.00
2019-02-20T09:18:08.204Z,4632.00
2019-02-20T09:19:08.173Z,5072.00
2019-02-20T09:20:08.133Z,5188.00
2019-02-20T09:21:08.098Z,5248.00
2019-02-20T09:22:08.083Z,4952.00
2019-02-20T09:23:08.033Z,5128.00
2019-02-20T09:24:08.006Z,5176.00
2019-02-20T09:25:07.962Z,5056.00
2019-02-20T09:26:07.924Z,5324.00
2019-02-20T09:27:07.894Z,5600.00
2019-02-20T09:28:07.862Z,5904.00
2019-02-20T09:29:07.825Z,6248.00
2019-02-20T09:30:07.794Z,6608.00
2019-02-20T09:31:07.753Z,6552.00
2019-02-20T09:32:07.723Z,6768.00
2019-02-20T09:33:07.693Z,6700.00
2019-02-20T09:34:07.660Z,6520.00
2019-02-20T09:35:07.622Z,6144.00
2019-02-20T09:36:07.578Z,5804.00
2019-02-20T09:37:07.544Z,5424.00
2019-02-20T09:38:07.509Z,5676.00
2019-02-20T09:39:07.485Z,6128.00
2019-02-20T09:40:07.443Z,5992.00
2019-02-20T09:41:07.419Z,5880.00
2019-02-20T09:42:07.366Z,6236.00
2019-02-20T09:43:07.354Z,6756.00
2019-02-20T09:44:07.310Z,7292.00
2019-02-20T09:45:07.282Z,7572.00
2019-02-20T09:46:07.258Z,7600.00
2019-02-20T09:47:07.212Z,7628.00
2019-02-20T09:48:07.184Z,7860.00
2019-02-20T09:49:07.149Z,8112.00
2019-02-20T09:50:07.106Z,8232.00
2019-02-20T09:51:07.071Z,7872.00
2019-02-20T09:52:07.032Z,8572.00
2019-02-20T09:53:07.000Z,9152.00
2019-02-20T09:54:06.965Z,9840.00
2019-02-20T09:55:06.930Z,11584.00
2019-02-20T09:56:06.905Z,13188.00
2019-02-20T09:57:06.875Z,21760.00
2019-02-20T09:58:06.833Z,33504.00
2019-02-20T09:59:06.801Z,24640.00
2019-02-20T10:00:06.773Z,85568.00
2019-02-20T10:01:06.744Z,85024.00
2019-02-20T10:02:06.704Z,80896.00
2019-02-20T10:03:06.680Z,98304.00
2019-02-20T10:04:06.649Z,94784.00
2019-02-20T10:05:06.599Z,75264.00
2019-02-20T10:06:06.581Z,75104.00
2019-02-20T10:07:06.550Z,83680.00
2019-02-20T10:08:06.509Z,15796.00
2019-02-20T10:09:06.490Z,30976.00
2019-02-20T10:10:06.451Z,79712.00
2019-02-20T10:11:06.434Z,90176.00
2019-02-20T10:12:06.395Z,89280.00
2019-02-20T10:13:06.364Z,89600.00
2019-02-20T10:14:06.340Z,89632.00
2019-02-20T10:15:06.319Z,83360.00
2019-02-20T10:16:06.286Z,72864.00
2019-02-20T10:17:06.261Z,84576.00
2019-02-20T10:18:07.613Z,82560.00
2019-02-20T10:19:06.209Z,94624.00
2019-02-20T10:20:06.176Z,83776.00
2019-02-20T10:21:06.151Z,101184.00
2019-02-20T10:22:06.129Z,96896.00
2019-02-20T10:23:06.102Z,96704.00
2019-02-20T10:24:06.070Z,88256.00
2019-02-20T10:25:06.054Z,88608.00
2019-02-20T10:26:06.026Z,87328.00
2019-02-20T10:27:06.009Z,85728.00
2019-02-20T10:28:05.978Z,91264.00
2019-02-20T10:29:05.952Z,90272.00
2019-02-20T10:30:05.923Z,81120.00
2019-02-20T10:31:05.901Z,34688.00
2019-02-20T10:32:05.873Z,81472.00
2019-02-20T10:33:05.851Z,27392.00
2019-02-20T10:34:05.832Z,69888.00
2019-02-20T10:35:05.802Z,67168.00
2019-02-20T10:36:05.788Z,84576.00
2019-02-20T10:37:05.765Z,94016.00
2019-02-20T10:38:05.728Z,88256.00
2019-02-20T10:39:05.723Z,95488.00
2019-02-20T10:40:05.675Z,99552.00
2019-02-20T10:41:05.659Z,87168.00
2019-02-20T10:42:05.634Z,67520.00
2019-02-20T10:43:05.609Z,84512.00
2019-02-20T10:44:05.578Z,59040.00
2019-02-20T10:45:05.560Z,46080.00
2019-02-20T10:46:05.532Z,36704.00
2019-02-20T10:47:05.507Z,40064.00
2019-02-20T10:48:05.488Z,33568.00
2019-02-20T10:49:05.463Z,32384.00
2019-02-20T10:50:05.444Z,31680.00
2019-02-20T10:51:05.413Z,30432.00
2019-02-20T10:52:05.379Z,53760.00
2019-02-20T10:53:05.358Z,48416.00
2019-02-20T10:54:05.329Z,46464.00
2019-02-20T10:55:05.304Z,73344.00
2019-02-20T10:56:09.474Z,40352.00
2019-02-20T10:57:05.253Z,15220.00
2019-02-20T10:58:05.224Z,78688.00
2019-02-20T10:59:05.213Z,48832.00
2019-02-20T11:00:05.187Z,34496.00
2019-02-20T11:01:05.150Z,28576.00
2019-02-20T11:02:05.120Z,29024.00
2019-02-20T11:03:05.085Z,22144.00
2019-02-20T11:04:05.066Z,18784.00
2019-02-20T11:05:05.031Z,29696.00
2019-02-20T11:06:05.006Z,79872.00
2019-02-20T11:07:04.974Z,72640.00
2019-02-20T11:08:04.965Z,39488.00
2019-02-20T11:09:04.919Z,33920.00
2019-02-20T11:10:04.889Z,30656.00
2019-02-20T11:11:04.864Z,42528.00
2019-02-20T11:12:04.850Z,50880.00
2019-02-20T11:13:04.813Z,61920.00
2019-02-20T11:14:04.776Z,44768.00
2019-02-20T11:15:04.745Z,47680.00
2019-02-20T11:16:04.724Z,22656.00
2019-02-20T11:17:04.701Z,19104.00
2019-02-20T11:18:04.671Z,28832.00
2019-02-20T11:19:04.640Z,29824.00
2019-02-20T11:20:04.611Z,30688.00
2019-02-20T11:21:04.580Z,32384.00
2019-02-20T11:22:04.555Z,22112.00
2019-02-20T11:23:04.524Z,16116.00
2019-02-20T11:24:04.500Z,15880.00
2019-02-20T11:25:04.466Z,16832.00
2019-02-20T11:26:04.907Z,14656.00
2019-02-20T11:27:04.416Z,15224.00
2019-02-20T11:28:04.377Z,58176.00
2019-02-20T11:29:04.352Z,29696.00
2019-02-20T11:30:04.321Z,23488.00
2019-02-20T11:31:04.294Z,31936.00
2019-02-20T11:32:04.263Z,37952.00
2019-02-20T11:33:04.235Z,52352.00
2019-02-20T11:34:04.211Z,68384.00
2019-02-20T11:35:04.190Z,63776.00
2019-02-20T11:36:04.150Z,68192.00
2019-02-20T11:37:04.113Z,62368.00
2019-02-20T11:38:04.083Z,76768.00
2019-02-20T11:39:04.056Z,64096.00
2019-02-20T11:40:04.041Z,68480.00
2019-02-20T11:41:04.013Z,53312.00
2019-02-20T11:42:03.976Z,33920.00
2019-02-20T11:43:03.951Z,40288.00
2019-02-20T11:44:03.918Z,27552.00
2019-02-20T11:45:03.902Z,25664.00
2019-02-20T11:46:03.879Z,29184.00
2019-02-20T11:47:03.837Z,27136.00
2019-02-20T11:48:03.813Z,19904.00
2019-02-20T11:49:03.777Z,19328.00
2019-02-20T11:50:03.761Z,19296.00
2019-02-20T11:51:03.720Z,19392.00
2019-02-20T11:52:03.687Z,31680.00
2019-02-20T11:53:03.666Z,36352.00
2019-02-20T11:54:03.629Z,51872.00
2019-02-20T11:55:05.406Z,53024.00
2019-02-20T11:56:03.568Z,52000.00
2019-02-20T11:57:03.548Z,24544.00
2019-02-20T11:58:03.516Z,41280.00
2019-02-20T11:59:03.497Z,60096.00
2019-02-20T12:00:03.472Z,62560.00
2019-02-20T12:01:03.440Z,67296.00
2019-02-20T12:02:03.411Z,80800.00
2019-02-20T12:03:03.380Z,83424.00
2019-02-20T12:04:03.349Z,75520.00
2019-02-20T12:05:03.321Z,47360.00
2019-02-20T12:06:03.303Z,77344.00
2019-02-20T12:07:03.263Z,96320.00
2019-02-20T12:08:03.246Z,82048.00
2019-02-20T12:09:03.217Z,65312.00
2019-02-20T12:10:03.184Z,47584.00
2019-02-20T12:11:03.157Z,57120.00
2019-02-20T12:12:03.132Z,58496.00
2019-02-20T12:13:03.104Z,46464.00
2019-02-20T12:14:03.083Z,25248.00
2019-02-20T12:15:03.052Z,21952.00
2019-02-20T12:16:03.020Z,19680.00
2019-02-20T12:17:03.992Z,18016.00
2019-02-20T12:18:02.963Z,20992.00
2019-02-20T12:19:02.944Z,22208.00
2019-02-20T12:20:02.912Z,20128.00
2019-02-20T12:21:02.889Z,17344.00
2019-02-20T12:22:02.869Z,17920.00
2019-02-20T12:23:02.832Z,16928.00
2019-02-20T12:24:02.846Z,16896.00
2019-02-20T12:25:02.771Z,21184.00
2019-02-20T12:26:02.754Z,21984.00
2019-02-20T12:27:02.727Z,23456.00
2019-02-20T12:28:02.698Z,23008.00
2019-02-20T12:29:02.664Z,23456.00
2019-02-20T12:30:02.653Z,23264.00
2019-02-20T12:31:02.613Z,20672.00
2019-02-20T12:32:02.584Z,21664.00
2019-02-20T12:33:02.554Z,21184.00
2019-02-20T12:34:02.521Z,18528.00
2019-02-20T12:35:02.509Z,21184.00
2019-02-20T12:36:02.473Z,20704.00
2019-02-20T12:37:02.450Z,16284.00